Terminal Aerodrome Forecast
Issued by NWS Omaha/Valley, NE

Home | Current Version | Previous Version | Text Only | Print | Product List | Glossary On
Versions: 1 2 3 4 5 6 7 8 9 10 11 12 13 14 15 16 17 18 19 20 21 22 23 24 25 26 27 28 29 30 31 32 33 34 35 36 37 38 39 40 41 42 43 44 45 46 47 48 49 50
000
FTUS43 KOAX 061503 AAB
TAFOFK
TAF AMD
KOFK 061503Z 0615/0712 14015G25KT 5SM BR OVC015
      TEMPO 0615/0617 3SM -SHRA BR OVC009
     FM061800 15015G25KT P6SM OVC050
     FM070100 16015G25KT 6SM -SHRA BR OVC040
      TEMPO 0702/0705 3SM -TSRA BR OVC025CB
     FM070800 18012KT P6SM OVC050=

USA.gov is the U.S. government's official web portal to all federal, state and local government web resources and services.